Zografos, Greece
Current Conditions -  °F | °C
As of 2:50 AM on Tuesday 23 Dec 2014 (Local Time) from LGTS Reporting Station
Clear Clear  
Wind Chill:   Ceiling: Unl
Heat Index:   Visibility: 6mi
Dew Point: -2°   Wind: 3mph
Humidity: 81%   Direction: NA
Pressure: 30.27"   Gusts: NA
Location:  40.28°N, 23.25°E
Report Text: LGTS 222350Z VRB03KT CAVOK 01/M02 Q1025 NOSIG
Loading
Personal Weather Stations






























Interactive Weather Map New forecast layout! Learn more

10-Day Weather Forecast

Advertisements
Track Severe Weather on mobile